• Join FlightAware (Why Join?)
  • Login
  • US Flag GB Flag 
04:36 EDT


 

Airport Tracker/Info


-or-


 

Live Flight TrackerFlight Track Log ✈ ASQ5740 ✈ 30-Apr-2013 ✈ KIAD - KBTV

Flight Track Log - Related Links

Times and Time Zones

All times are in EDT time to prevent confusion due to time zone crossing. See the ASQ5740 flight status page for this flight to view local times or setup timezone preferences in your user account.

Time Position Orientation Groundspeed Altitude Reporting Facility
EDT Latitude Longitude Course Direction KTS MPH feet Rate Location/Type
12:39 38.9989 -77.4558 72° East 210 242 2,200  Level Washington Center
12:40 39.0614 -77.4708 349° North 270 311 4,900 2,760 Climbing Washington Center
12:41 39.0001 -77.0828 72° East  Level FlightAware Approximate
12:41 39.1167 -77.4333 28° Northeast 277 319 7,500  Level Potomac TRACON
12:42 39.0167 -76.9589 90° East  Level FlightAware Approximate
12:42 39.1500 -77.3333 67° East 290 334 10,100  Level Potomac TRACON
12:43 39.0449 -76.8373 72° East  Level FlightAware Approximate
12:43 39.1500 -77.2167 90° East 322 371 12,200  Level Potomac TRACON
12:44 39.0593 -76.7128 72° East  Level FlightAware Approximate
12:45 39.1075 -76.9800 103° East 346 398 15,300  Level Washington Center
12:46 39.0861 -76.8458 102° East 368 423 16,300 1,140 Climbing Washington Center
12:47 39.0644 -76.7064 101° East 386 444 17,600 1,140 Climbing Washington Center
12:48 39.0469 -76.5617 99° East 396 456 18,700 1,140 Climbing Washington Center
12:49 39.0606 -76.4231 83° East 389 448 19,900 1,020 Climbing Washington Center
12:50 39.0947 -76.2817 73° East 389 448 20,800 840 Climbing Washington Center
12:51 39.1331 -76.1347 71° East 405 466 21,600 780 Climbing Washington Center
12:52 39.1669 -75.9878 73° East 416 479 22,500 840 Climbing Washington Center
12:53 39.2153 -75.8514 65° Northeast 421 484 23,400 900 Climbing Washington Center
12:54 39.2967 -75.7444 45° Northeast 412 474 24,300 900 Climbing Washington Center
12:55 39.3844 -75.6344 44° Northeast 417 480 25,200 840 Climbing Washington Center
12:56 39.4803 -75.5486 35° Northeast 417 480 26,100 720 Climbing Washington Center
12:57 39.5675 -75.4408 44° Northeast 417 480 26,700 540 Climbing Washington Center
12:58 39.6467 -75.3194 50° Northeast 422 486 27,200 480 Climbing Washington Center
12:59 39.7275 -75.2003 49° Northeast 435 501 27,700 480 Climbing Washington Center
13:01 39.8389 -75.0261 50° Northeast 470 541 28,400 780 Climbing New York Center
13:02 39.9261 -74.9150 44° Northeast 456 525 29,700 1,260 Climbing New York Center
13:03 40.0150 -74.8147 41° Northeast 430 495 31,000 600 Climbing New York Center
13:04 40.1086 -74.7006 43° Northeast 415 478 31,000  Level New York Center
13:05 40.1889 -74.6047 42° Northeast 415 478 31,000  Level New York Center
13:06 40.2842 -74.4903 42° Northeast 414 476 31,000  Level New York Center
13:07 40.3686 -74.3858 43° Northeast 414 476 31,000  Level New York Center
13:08 40.4553 -74.2842 42° Northeast 409 471 31,000  Level New York Center
13:09 40.5375 -74.1817 43° Northeast 409 471 31,000  Level New York Center
13:11 40.7081 -73.9789 42° Northeast 403 464 31,000  Level Boston Center
13:12 40.7886 -73.8819 42° Northeast 393 452 31,000  Level Boston Center
13:13 40.8708 -73.7933 39° Northeast 393 452 31,000  Level Boston Center
13:14 40.9731 -73.7925 360° North 354 407 31,000  Level Boston Center
13:15 41.0731 -73.7975 358° North 354 407 31,000  Level Boston Center
13:16 41.1708 -73.7994 359° North 354 407 31,000  Level Boston Center
13:17 41.2753 -73.7825 North 354 407 31,000  Level Boston Center
13:18 41.3778 -73.7625 North 364 419 31,000  Level Boston Center
13:19 41.4800 -73.7425 North 370 426 31,000  Level Boston Center
13:20 41.5844 -73.7222 North 370 426 31,000  Level Boston Center
13:21 41.6931 -73.6994 North 375 432 31,000  Level Boston Center
13:22 41.7953 -73.6875 North 370 426 31,000  Level Boston Center
13:23 41.9019 -73.6675 North 370 426 31,000  Level Boston Center
13:24 42.0064 -73.6469 North 370 426 31,000  Level Boston Center
13:25 42.1169 -73.6211 10° North 384 442 31,000  Level Boston Center
13:26 42.2214 -73.6008 North 384 442 31,000  Level Boston Center
13:27 42.3236 -73.5997 360° North 384 442 31,000  Level Boston Center
13:28 42.4339 -73.6186 353° North 364 419 31,000  Level Boston Center
13:29 42.5381 -73.6264 357° North 364 419 31,000  Level Boston Center
13:30 42.6400 -73.6339 357° North 364 419 31,000  Level Boston Center
13:31 42.7422 -73.6417 357° North 364 419 31,000  Level Boston Center
13:32 42.8442 -73.6464 358° North 364 419 31,000 -60 Level Boston Center
13:33 42.9442 -73.6569 356° North 364 419 30,900 -900 Descending Boston Center
13:34 43.0503 -73.6589 359° North 364 419 29,200 -1,680 Descending Boston Center
13:35 43.1383 -73.6294 14° North 364 419 27,600 -1,740 Descending Boston Center
13:36 43.2367 -73.5944 15° North 364 419 25,800 -1,740 Descending Boston Center
13:37 43.3286 -73.5617 15° North 349 402 24,100 -900 Descending Boston Center
13:38 43.4206 -73.5292 14° North 339 390 24,000 -60 Descending Boston Center
13:39 43.5147 -73.4964 14° North 339 390 24,000 -900 Level Boston Center
13:40 43.6108 -73.4753 North 339 390 22,200 -2,340 Descending Boston Center
13:41 43.7169 -73.4683 North 339 390 19,400 -2,520 Descending Boston Center
13:42 43.8067 -73.4583 North 354 407 17,200 -2,400 Descending Boston Center
13:43 43.9006 -73.4456 North 347 399 14,600 -2,640 Descending Boston Center
13:44 43.9883 -73.4125 15° North 333 383 12,000 -2,100 Descending Boston Center
13:45 44.0700 -73.3675 22° Northeast 318 366 10,500 -1,800 Descending Boston Center
13:46 44.1514 -73.3428 12° North 298 343 8,500 -1,980 Descending Boston Center
13:47 44.2286 -73.3325 North 286 329 6,600 -2,040 Descending Boston Center
13:48 44.3058 -73.3278 North 280 322 4,500 -1,800 Descending Boston Center
13:49 44.3828 -73.3347 356° North 269 310 3,000 -1,140 Descending Boston Center
13:50 44.4456 -73.3242 North 244 281 2,300 -420 Descending Boston Center
13:51 44.5000 -73.2869 26° Northeast 219 252 2,200 -120 Descending Boston Center